Time;durP1;ratioP1;P1;durP2;ratioP2;P2;SDS_P1;SDS_P2;PMS_P1;PMS_P2;Temp;Humidity;BMP_temperature;BMP_pressure;BME280_temperature;BME280_humidity;BME280_pressure;Samples;Min_cycle;Max_cycle;Signal;HPM_P1;HPM_P2
2021/01/22 00:01:15;;;;;;;7.73;5.70;;;7.60;99.90;;;7.71;80.44;98358.94;5077917;28;20040;-72
2021/01/22 00:03:42;;;;;;;5.93;4.63;;;7.50;99.90;;;7.64;80.80;98386.34;5078072;28;20044;-73
2021/01/22 00:06:11;;;;;;;7.40;4.87;;;7.50;99.90;;;7.17;81.44;98295.00;5095959;28;20117;-75
2021/01/22 00:08:39;;;;;;;4.43;4.03;;;7.40;99.90;;;7.46;81.05;98363.28;5095857;28;20040;-74
2021/01/22 00:11:07;;;;;;;5.27;4.30;;;7.40;99.90;;;7.62;81.44;98366.25;5095691;28;20048;-73
2021/01/22 00:13:34;;;;;;;4.97;4.30;;;7.40;99.90;;;7.62;81.16;98377.66;5095468;28;20063;-72
2021/01/22 00:16:02;;;;;;;5.50;4.70;;;7.40;99.90;;;7.70;81.01;98383.53;5095752;28;20142;-73
2021/01/22 00:18:30;;;;;;;5.33;4.70;;;7.40;99.90;;;7.58;81.30;98377.78;5095661;28;20055;-73
2021/01/22 00:20:57;;;;;;;5.37;4.43;;;7.40;99.90;;;7.61;81.48;98382.94;5095492;28;20044;-71
2021/01/22 00:23:26;;;;;;;4.93;4.43;;;7.40;99.90;;;7.68;80.70;98387.97;5095608;28;20178;-72
2021/01/22 00:25:54;;;;;;;5.07;4.53;;;7.50;99.90;;;7.62;80.95;98388.19;5095662;28;20047;-71
2021/01/22 00:28:21;;;;;;;5.40;4.10;;;7.40;99.90;;;7.64;80.45;98378.47;5077199;28;20517;-72
2021/01/22 00:30:49;;;;;;;5.70;4.53;;;7.50;99.90;;;7.74;80.73;98386.91;5095624;28;20117;-73
2021/01/22 00:33:17;;;;;;;4.93;4.40;;;7.50;99.90;;;7.69;80.63;98371.25;5095578;28;20113;-74
2021/01/22 00:35:45;;;;;;;4.03;3.33;;;7.50;99.90;;;7.73;80.31;98377.28;5095485;28;20044;-71
2021/01/22 00:38:12;;;;;;;3.80;3.50;;;7.50;99.90;;;7.68;80.22;98382.72;5095067;28;20143;-71
2021/01/22 00:40:40;;;;;;;4.47;4.07;;;7.50;99.90;;;7.18;80.30;98317.75;5094815;28;20044;-71
2021/01/22 00:43:08;;;;;;;4.27;3.90;;;7.40;99.90;;;7.62;80.67;98392.56;5094941;28;20036;-72
2021/01/22 00:45:36;;;;;;;4.93;4.10;;;7.40;99.90;;;7.64;80.29;98402.13;5076547;28;20083;-72
2021/01/22 00:48:04;;;;;;;5.13;4.37;;;7.40;99.90;;;7.54;80.71;98412.97;5094939;28;20474;-72
2021/01/22 00:50:32;;;;;;;6.60;4.20;;;7.30;99.90;;;7.56;80.96;98408.53;5094862;28;20370;-73
2021/01/22 00:53:00;;;;;;;5.00;4.50;;;7.40;99.90;;;7.57;81.29;98408.47;5094811;28;20459;-73
2021/01/22 00:55:29;;;;;;;5.77;4.53;;;7.40;99.90;;;7.64;80.99;98407.41;5075626;28;20412;-72
2021/01/22 00:58:29;;;;;;;6.20;4.43;;;7.40;99.90;;;7.73;80.90;98406.22;5067575;28;20044;-72
2021/01/22 01:01:15;;;;;;;7.83;4.20;;;7.40;99.90;;;7.65;80.38;98393.31;5076412;28;20105;-73
2021/01/22 01:03:43;;;;;;;4.77;4.37;;;7.50;99.90;;;7.70;80.17;98419.50;5094574;28;20055;-73
2021/01/22 01:06:11;;;;;;;5.87;3.97;;;7.50;99.90;;;7.71;80.47;98422.06;5094731;28;20412;-72
2021/01/22 01:08:45;;;;;;;6.07;4.50;;;7.50;99.90;;;7.59;80.91;98424.25;5076391;28;20071;-73
2021/01/22 01:11:29;;;;;;;9.40;5.87;;;7.40;99.90;;;7.50;80.86;98435.03;5076434;28;20048;-72
2021/01/22 01:14:29;;;;;;;15.40;8.97;;;7.30;99.90;;;7.41;81.20;98449.34;5087483;28;20485;-72
2021/01/22 01:16:58;;;;;;;11.73;8.03;;;7.20;99.90;;;7.31;81.47;98450.53;5094283;28;20046;-72
2021/01/22 01:19:26;;;;;;;7.87;4.93;;;7.10;99.90;;;7.26;81.68;98453.28;5094365;28;20116;-72
2021/01/22 01:21:53;;;;;;;4.67;4.27;;;7.10;99.90;;;7.28;82.36;98455.84;5094290;28;20494;-72
2021/01/22 01:24:21;;;;;;;5.37;4.10;;;7.00;99.90;;;7.31;82.53;98461.03;5094077;28;20490;-73
2021/01/22 01:26:48;;;;;;;4.90;3.60;;;7.10;99.90;;;7.43;82.17;98460.66;5094098;28;20465;-72
2021/01/22 01:29:16;;;;;;;8.53;4.10;;;7.10;99.90;;;7.42;82.20;98464.19;5094304;28;20048;-73
2021/01/22 01:31:44;;;;;;;6.33;3.43;;;7.20;99.90;;;7.34;82.22;98467.97;5094078;28;20055;-72
2021/01/22 01:34:12;;;;;;;5.57;4.07;;;7.10;99.90;;;7.26;81.92;98481.31;5093938;28;20482;-72
2021/01/22 01:36:39;;;;;;;10.30;4.40;;;7.10;99.90;;;7.22;82.61;98471.81;5093879;28;20047;-72
2021/01/22 01:39:06;;;;;;;5.20;3.90;;;7.00;99.90;;;7.24;82.34;98481.38;5075518;28;20135;-72
2021/01/22 01:41:34;;;;;;;6.83;3.80;;;7.00;99.90;;;7.20;82.55;98484.16;5094160;28;20048;-71
2021/01/22 01:44:02;;;;;;;4.30;3.93;;;7.00;99.90;;;7.20;82.85;98489.41;5093807;28;20493;-72
2021/01/22 01:46:29;;;;;;;7.80;4.30;;;7.00;99.90;;;7.27;82.60;98486.56;5093753;28;20044;-72
2021/01/22 01:48:58;;;;;;;7.47;3.70;;;7.00;99.90;;;7.19;82.77;98498.19;5093732;28;20044;-72
2021/01/22 01:51:26;;;;;;;7.73;4.10;;;7.00;99.90;;;7.19;82.79;98492.94;5093684;28;20051;-72
2021/01/22 01:53:53;;;;;;;7.90;4.37;;;7.00;99.90;;;7.02;82.79;98497.81;5093520;28;20094;-73
2021/01/22 01:56:22;;;;;;;11.80;4.67;;;6.90;99.90;;;6.93;83.10;98484.94;5093667;28;20044;-71
2021/01/22 01:58:49;;;;;;;7.60;4.30;;;6.90;99.90;;;7.07;82.93;98501.16;5093566;28;20040;-73
2021/01/22 02:01:19;;;;;;;7.27;4.33;;;6.90;99.90;;;6.98;83.13;98480.41;5093469;28;20493;-72
2021/01/22 02:03:46;;;;;;;4.60;3.93;;;6.80;99.90;;;7.09;82.86;98509.88;5075200;28;20048;-72
2021/01/22 02:06:14;;;;;;;9.90;4.47;;;6.90;99.90;;;6.93;83.02;98503.34;5093154;28;20544;-72
2021/01/22 02:08:42;;;;;;;6.53;4.83;;;6.80;99.90;;;6.97;83.13;98518.09;5093250;28;20071;-71
2021/01/22 02:11:13;;;;;;;7.23;4.17;;;6.80;99.90;;;7.11;83.01;98513.31;5093250;28;20063;-72
2021/01/22 02:13:42;;;;;;;6.37;4.10;;;6.80;99.90;;;6.96;83.19;98512.00;5093324;28;20492;-72
2021/01/22 02:16:11;;;;;;;8.90;5.10;;;6.90;99.90;;;7.11;82.91;98527.31;5093189;28;20036;-72
2021/01/22 02:18:40;;;;;;;9.00;5.10;;;6.90;99.90;;;7.12;82.73;98536.06;5093045;28;20052;-72
2021/01/22 02:21:24;;;;;;;6.90;4.00;;;6.90;99.90;;;7.02;83.04;98532.84;5093358;28;20109;-72
2021/01/22 02:23:58;;;;;;;7.80;4.83;;;6.80;99.90;;;6.99;82.95;98532.03;5093111;28;20032;-71
2021/01/22 02:26:53;;;;;;;10.53;4.43;;;6.80;99.90;;;7.01;82.83;98535.50;5074881;28;20520;-71
2021/01/22 02:29:21;;;;;;;5.60;4.43;;;6.80;99.90;;;7.13;82.65;98543.03;5074653;28;20094;-71
2021/01/22 02:31:52;;;;;;;5.03;3.90;;;6.90;99.90;;;7.05;82.11;98537.13;5093105;28;20044;-71
2021/01/22 02:34:25;;;;;;;6.37;4.30;;;6.90;99.90;;;7.00;82.55;98544.28;5074881;28;20055;-71
2021/01/22 02:36:57;;;;;;;6.13;4.23;;;6.80;99.90;;;6.89;82.49;98559.50;5092672;28;20047;-72
2021/01/22 02:39:32;;;;;;;7.63;4.57;;;6.70;99.90;;;6.89;82.43;98547.19;5092694;28;20054;-72
2021/01/22 02:42:03;;;;;;;7.17;4.67;;;6.70;99.90;;;7.00;82.31;98557.44;5092992;28;20059;-71
2021/01/22 02:44:31;;;;;;;8.80;4.83;;;6.80;99.90;;;7.03;81.82;98558.22;5074793;28;20051;-73
2021/01/22 02:47:00;;;;;;;7.67;4.53;;;6.70;99.90;;;6.96;81.91;98555.78;5092547;28;20040;-72
2021/01/22 02:49:28;;;;;;;11.40;4.20;;;6.80;99.90;;;7.03;81.75;98555.56;5092582;28;20126;-72
2021/01/22 02:51:57;;;;;;;9.43;4.53;;;6.80;99.90;;;6.97;81.82;98539.09;5092599;28;20070;-72
2021/01/22 02:54:25;;;;;;;7.57;4.68;;;6.80;99.90;;;6.99;81.53;98559.19;5092607;28;20055;-71
2021/01/22 02:57:05;;;;;;;8.63;3.90;;;6.80;99.90;;;6.96;81.82;98569.78;5092375;28;20500;-72
2021/01/22 02:59:46;;;;;;;8.75;4.25;;;6.70;99.90;;;6.93;81.70;98564.59;5092534;28;20394;-72
2021/01/22 03:02:20;;;;;;;9.77;4.88;;;6.70;99.90;;;6.93;81.31;98563.78;5092521;28;20463;-71
2021/01/22 03:04:48;;;;;;;10.43;4.97;;;6.70;99.90;;;6.87;81.34;98553.41;5074001;28;20135;-71
2021/01/22 03:07:23;;;;;;;11.83;4.53;;;6.80;99.90;;;6.41;81.35;98480.22;5092549;28;20052;-72
2021/01/22 03:09:59;;;;;;;9.27;5.10;;;6.80;99.90;;;6.97;80.97;98591.66;5092461;28;20056;-72
2021/01/22 03:12:31;;;;;;;14.60;5.20;;;6.80;99.90;;;7.06;80.95;98587.06;5092136;28;20143;-72
2021/01/22 03:14:59;;;;;;;13.00;5.73;;;6.80;99.90;;;7.19;80.36;98593.69;5092130;28;20044;-73
2021/01/22 03:17:26;;;;;;;11.40;4.97;;;6.80;99.90;;;7.16;79.56;98582.41;5091792;28;20508;-71
2021/01/22 03:19:56;;;;;;;11.87;5.87;;;7.00;99.90;;;7.20;79.58;98597.19;5092219;28;20559;-71
2021/01/22 03:22:24;;;;;;;17.33;6.68;;;7.00;99.90;;;7.09;80.08;98593.97;5092187;28;20082;-71
2021/01/22 03:24:51;;;;;;;16.43;5.73;;;7.00;99.90;;;7.09;80.60;98600.09;5092022;28;20044;-72
2021/01/22 03:27:19;;;;;;;17.37;6.40;;;6.90;99.90;;;7.19;80.28;98605.97;5092095;28;20059;-71
2021/01/22 03:29:47;;;;;;;19.73;6.70;;;7.00;99.90;;;7.32;80.15;98609.97;5092064;28;20122;-72
2021/01/22 03:32:14;;;;;;;17.73;5.63;;;7.10;99.90;;;7.28;80.12;98617.06;5092291;28;20048;-72
2021/01/22 03:34:42;;;;;;;21.70;6.17;;;7.10;99.90;;;7.28;79.89;98609.19;5092035;28;20078;-72
2021/01/22 03:37:09;;;;;;;15.93;6.37;;;7.10;99.90;;;7.30;80.04;98609.16;5092053;28;20110;-71
2021/01/22 03:39:37;;;;;;;17.50;7.03;;;7.10;99.90;;;7.20;80.10;98621.69;5092127;28;20044;-71
2021/01/22 03:42:05;;;;;;;18.13;7.03;;;7.10;99.90;;;7.32;80.06;98623.09;5091906;28;20155;-72
2021/01/22 03:44:32;;;;;;;12.03;5.73;;;7.20;99.90;;;6.56;79.82;98516.59;5073968;28;20058;-72
2021/01/22 03:47:01;;;;;;;14.60;6.20;;;7.10;99.90;;;7.34;79.64;98649.38;5092083;28;20463;-72
2021/01/22 03:49:28;;;;;;;11.47;5.80;;;7.10;99.90;;;7.22;79.81;98643.53;5091862;28;20512;-72
2021/01/22 03:51:56;;;;;;;18.37;6.33;;;7.10;99.90;;;7.14;79.37;98619.22;5091883;28;20896;-72
2021/01/22 03:54:23;;;;;;;16.53;5.90;;;7.10;99.90;;;7.07;79.20;98640.44;5091874;28;20139;-71
2021/01/22 03:56:50;;;;;;;13.63;5.67;;;7.10;99.90;;;7.33;79.10;98669.53;5091702;28;20048;-72
2021/01/22 03:59:18;;;;;;;17.27;5.93;;;7.10;99.90;;;7.24;78.82;98638.22;5091861;28;20047;-71
2021/01/22 04:01:45;;;;;;;12.93;5.27;;;7.20;99.90;;;7.32;78.76;98667.81;5091952;28;20048;-71
2021/01/22 04:04:13;;;;;;;11.77;5.67;;;7.20;99.90;;;7.42;78.12;98677.19;5073602;28;20163;-71
2021/01/22 04:07:00;;;;;;;16.47;6.20;;;7.20;99.90;;;7.54;77.10;98682.09;5091752;28;20048;-72
2021/01/22 04:09:29;;;;;;;15.30;5.87;;;7.30;99.90;;;7.52;77.18;98688.31;5091680;28;20036;-71
2021/01/22 04:11:57;;;;;;;10.87;5.30;;;7.30;99.90;;;7.60;76.89;98702.13;5091452;28;20048;-71
2021/01/22 04:14:25;;;;;;;15.70;5.57;;;7.40;99.90;;;7.58;77.09;98686.38;5091709;28;20486;-71
2021/01/22 04:16:55;;;;;;;14.10;6.10;;;7.40;99.90;;;7.45;77.32;98695.53;5091628;28;20040;-72
2021/01/22 04:19:24;;;;;;;14.63;5.72;;;7.30;99.90;;;6.72;77.17;98586.19;5091720;28;20063;-72
2021/01/22 04:21:51;;;;;;;19.37;5.83;;;7.20;99.90;;;7.19;77.57;98680.44;5091449;28;20125;-72
2021/01/22 04:24:19;;;;;;;12.83;5.97;;;7.10;99.90;;;7.17;77.20;98689.25;5091453;28;20052;-71
2021/01/22 04:26:47;;;;;;;13.97;5.67;;;7.00;99.90;;;7.09;76.68;98678.06;5091526;28;20048;-70
2021/01/22 04:29:15;;;;;;;14.17;5.60;;;7.00;99.90;;;7.11;76.64;98685.00;5073506;28;20044;-70
2021/01/22 04:31:43;;;;;;;13.10;5.47;;;7.00;99.90;;;7.09;76.68;98699.09;5094890;28;20055;-71
2021/01/22 04:34:11;;;;;;;13.87;5.57;;;6.90;99.90;;;6.42;77.06;98580.84;5095041;28;20126;-69
2021/01/22 04:36:39;;;;;;;11.63;5.63;;;6.90;99.90;;;7.14;76.75;98694.59;5094938;28;20413;-70
2021/01/22 04:39:08;;;;;;;15.27;5.93;;;6.90;99.90;;;7.18;77.14;98696.25;5095078;28;20040;-70
2021/01/22 04:41:36;;;;;;;12.10;5.17;;;7.00;99.90;;;7.06;77.17;98700.06;5094991;28;20519;-69
2021/01/22 04:44:05;;;;;;;15.67;6.03;;;6.90;99.90;;;7.11;76.99;98707.78;5095069;28;20119;-69
2021/01/22 04:46:34;;;;;;;14.53;6.10;;;7.00;99.90;;;7.07;76.93;98703.53;5094973;28;20461;-70
2021/01/22 04:49:05;;;;;;;12.83;6.07;;;6.90;99.90;;;7.14;77.09;98705.13;5076653;28;20493;-70
2021/01/22 04:51:35;;;;;;;19.73;6.07;;;6.90;99.90;;;7.12;76.62;98717.44;5095334;28;20097;-70
2021/01/22 04:54:09;;;;;;;19.75;6.30;;;7.00;99.90;;;7.09;76.30;98715.72;5094715;28;20507;-70
2021/01/22 04:56:42;;;;;;;15.67;5.30;;;7.00;99.90;;;7.09;76.82;98720.13;5094932;28;20367;-70
2021/01/22 04:59:17;;;;;;;13.47;5.70;;;6.90;99.90;;;6.44;76.57;98605.31;5094732;28;20409;-70
2021/01/22 05:01:46;;;;;;;13.67;5.97;;;6.90;99.90;;;7.00;76.71;98718.59;5076621;28;20055;-70
2021/01/22 05:04:14;;;;;;;20.20;5.77;;;6.90;99.90;;;6.99;77.09;98726.50;5094555;28;20123;-71
2021/01/22 05:06:42;;;;;;;17.23;5.70;;;6.80;99.90;;;6.82;77.31;98692.75;5094517;28;20131;-70
2021/01/22 05:09:10;;;;;;;16.70;6.43;;;6.80;99.90;;;6.98;77.13;98716.91;5094498;28;20059;-70
2021/01/22 05:11:38;;;;;;;17.30;5.77;;;6.80;99.90;;;6.75;77.35;98693.81;5094484;28;20055;-69
2021/01/22 05:14:06;;;;;;;17.73;6.97;;;6.80;99.90;;;6.89;77.36;98699.59;5093997;28;20472;-70
2021/01/22 05:16:34;;;;;;;15.53;6.00;;;6.80;99.90;;;6.99;77.72;98731.75;5094320;28;20052;-70
2021/01/22 05:19:20;;;;;;;21.93;8.00;;;6.80;99.90;;;6.93;77.71;98726.66;5094472;28;20048;-70
2021/01/22 05:21:48;;;;;;;24.57;6.13;;;6.80;99.90;;;6.94;78.42;98738.88;5094325;28;20393;-70
2021/01/22 05:24:24;;;;;;;14.40;5.97;;;6.70;99.90;;;6.94;78.54;98739.75;5076036;28;20135;-70
2021/01/22 05:27:03;;;;;;;18.33;6.93;;;6.80;99.90;;;7.06;78.39;98742.09;5076181;28;20044;-70
2021/01/22 05:29:33;;;;;;;15.93;6.17;;;6.80;99.90;;;7.04;78.72;98740.41;5094091;28;20047;-71
2021/01/22 05:32:01;;;;;;;20.75;6.90;;;6.80;99.90;;;7.07;78.77;98742.94;5094081;28;20113;-70
2021/01/22 05:34:45;;;;;;;19.80;6.40;;;6.90;99.90;;;6.94;78.58;98724.00;5094042;28;20029;-70
2021/01/22 05:37:13;;;;;;;17.63;6.53;;;6.90;99.90;;;7.17;79.27;98752.31;5094139;28;20397;-71
2021/01/22 05:39:41;;;;;;;16.50;5.83;;;6.90;99.90;;;7.05;79.27;98744.75;5075913;28;20580;-68
2021/01/22 05:42:10;;;;;;;18.93;6.40;;;6.90;99.90;;;7.10;79.39;98746.34;5093410;28;20098;-70
2021/01/22 05:44:38;;;;;;;20.97;6.80;;;6.90;99.90;;;7.21;79.29;98743.47;5093763;28;20558;-70
2021/01/22 05:47:08;;;;;;;22.63;6.90;;;7.00;99.90;;;7.14;79.03;98726.13;5093761;28;20489;-73
2021/01/22 05:49:54;;;;;;;25.75;7.57;;;7.00;99.90;;;7.21;79.13;98748.72;5093685;28;20044;-68
2021/01/22 05:52:23;;;;;;;20.97;6.33;;;7.00;99.90;;;7.09;79.31;98731.50;5093727;28;20062;-70
2021/01/22 05:54:52;;;;;;;23.73;6.80;;;7.00;99.90;;;7.17;78.84;98747.06;5093501;28;20067;-69
2021/01/22 05:57:20;;;;;;;21.97;6.70;;;7.10;99.90;;;7.30;79.17;98764.25;5093278;28;20047;-70
2021/01/22 06:00:10;;;;;;;22.53;6.23;;;7.10;99.90;;;7.29;79.17;98759.91;5075300;28;20047;-69
2021/01/22 06:02:39;;;;;;;20.03;6.47;;;7.10;99.90;;;7.29;78.97;98763.41;5093428;28;20109;-69
2021/01/22 06:05:10;;;;;;;20.23;6.47;;;7.10;99.90;;;7.29;79.07;98771.31;5075325;28;20048;-71
2021/01/22 06:07:39;;;;;;;15.65;6.53;;;7.10;99.90;;;7.27;79.18;98766.97;5093441;28;20056;-71
2021/01/22 06:10:15;;;;;;;25.77;6.53;;;7.10;99.90;;;7.27;79.38;98769.59;5093646;28;20048;-70
2021/01/22 06:12:49;;;;;;;22.70;7.30;;;7.10;99.90;;;7.27;78.97;98762.59;5093189;28;20060;-71
2021/01/22 06:15:18;;;;;;;18.03;6.80;;;7.10;99.90;;;7.11;79.36;98763.00;5093229;28;20048;-69
2021/01/22 06:17:49;;;;;;;19.30;6.53;;;7.00;99.90;;;7.22;79.48;98772.34;5093209;28;20060;-70
2021/01/22 06:20:19;;;;;;;25.45;6.88;;;7.00;99.90;;;7.26;79.41;98776.63;5093201;28;20382;-70
2021/01/22 06:23:12;;;;;;;21.10;6.57;;;7.10;99.90;;;7.21;79.46;98790.78;5074949;28;20492;-69
2021/01/22 06:25:44;;;;;;;18.63;6.80;;;7.00;99.90;;;7.17;79.86;98790.00;5093248;28;20055;-71
2021/01/22 06:28:12;;;;;;;20.70;7.57;;;7.00;99.90;;;7.22;79.60;98797.75;5093143;28;20052;-70
2021/01/22 06:30:40;;;;;;;22.00;8.97;;;7.00;99.90;;;7.10;79.78;98800.69;5092987;28;20036;-69
2021/01/22 06:33:08;;;;;;;24.17;6.70;;;6.90;99.90;;;7.05;79.74;98794.66;5074629;28;20412;-69
2021/01/22 06:35:37;;;;;;;19.47;7.10;;;6.90;99.90;;;7.06;79.90;98794.66;5074843;28;20040;-72
2021/01/22 06:38:07;;;;;;;18.97;7.23;;;6.90;99.90;;;7.12;79.64;98798.91;5074527;28;20055;-71
2021/01/22 06:40:35;;;;;;;17.73;6.77;;;6.90;99.90;;;7.10;80.11;98806.78;5092811;28;20070;-72
2021/01/22 06:43:04;;;;;;;18.07;6.80;;;6.90;99.90;;;7.05;79.96;98818.31;5092817;28;20136;-72
2021/01/22 06:45:31;;;;;;;24.03;7.23;;;6.90;99.90;;;7.09;80.11;98820.84;5092702;28;20044;-72
2021/01/22 06:48:01;;;;;;;19.53;7.87;;;6.90;99.90;;;6.43;79.59;98714.69;5092534;28;20043;-71
2021/01/22 06:50:30;;;;;;;17.95;7.03;;;6.90;99.90;;;7.18;79.37;98828.50;5092512;28;20059;-71
2021/01/22 06:53:11;;;;;;;22.67;7.07;;;7.00;99.90;;;7.17;79.45;98825.94;5092101;28;20438;-70
2021/01/22 06:56:09;;;;;;;17.23;6.70;;;7.00;99.90;;;7.24;79.10;98832.75;5074491;28;20044;-72
2021/01/22 06:58:38;;;;;;;21.57;7.00;;;7.00;99.90;;;7.19;79.56;98835.53;5086909;28;20060;-71
2021/01/22 07:01:33;;;;;;;22.70;7.33;;;7.00;99.90;;;7.24;79.34;98841.50;5092358;28;20044;-70
2021/01/22 07:04:02;;;;;;;24.07;6.67;;;7.00;99.90;;;7.27;79.13;98845.84;5092553;28;20067;-72
2021/01/22 07:06:56;;;;;;;21.37;7.13;;;7.10;99.90;;;7.08;79.38;98848.03;5092277;28;20066;-70
2021/01/22 07:09:51;;;;;;;18.70;6.13;;;7.00;99.90;;;7.07;79.57;98867.34;5092348;28;20769;-73
2021/01/22 07:12:40;;;;;;;23.43;6.40;;;6.90;99.90;;;7.09;79.81;98869.91;5092144;28;20460;-72
2021/01/22 07:15:28;;;;;;;17.57;6.10;;;6.90;99.90;;;7.15;79.32;98877.66;5092151;28;20078;-69
2021/01/22 07:17:57;;;;;;;24.43;6.97;;;6.90;99.90;;;7.08;79.36;98873.47;5092169;28;20046;-69
2021/01/22 07:20:25;;;;;;;21.37;7.67;;;6.90;99.90;;;7.10;79.88;98877.75;5092278;28;20048;-69
2021/01/22 07:22:55;;;;;;;18.60;6.90;;;6.90;99.90;;;7.12;79.72;98881.22;5073854;28;20081;-69
2021/01/22 07:25:37;;;;;;;26.23;7.43;;;6.90;99.90;;;7.14;79.67;98887.31;5091891;28;20412;-69
2021/01/22 07:28:21;;;;;;;21.57;6.63;;;6.90;99.90;;;7.10;79.57;98893.53;5091952;28;20052;-68
2021/01/22 07:30:50;;;;;;;18.43;6.77;;;7.00;99.90;;;7.10;79.56;98895.31;5092077;28;20072;-70
2021/01/22 07:33:44;;;;;;;20.63;6.97;;;6.90;99.90;;;7.15;79.52;98896.06;5092004;28;20138;-69
2021/01/22 07:36:14;;;;;;;23.43;6.97;;;6.90;99.90;;;7.10;79.62;98896.16;5045053;28;20082;-69
2021/01/22 07:38:43;;;;;;;17.65;6.20;;;6.90;99.90;;;7.16;79.38;98896.03;5091943;28;20055;-69
2021/01/22 07:41:12;;;;;;;18.90;6.40;;;7.00;99.90;;;7.07;79.37;98887.47;5092009;28;20032;-68
2021/01/22 07:43:40;;;;;;;25.03;7.53;;;7.00;99.90;;;7.20;78.94;98902.94;5091980;28;20127;-68
2021/01/22 07:46:09;;;;;;;24.10;6.73;;;7.00;99.90;;;7.26;78.64;98909.81;5091789;28;20032;-69
2021/01/22 07:48:40;;;;;;;19.73;6.27;;;7.00;99.90;;;7.28;78.41;98906.28;5091985;28;20050;-68
2021/01/22 07:51:33;;;;;;;18.00;6.37;;;7.10;99.90;;;7.42;77.77;98912.97;5091815;28;20044;-68
2021/01/22 07:54:02;;;;;;;21.90;6.80;;;7.20;99.90;;;7.38;77.08;98909.56;5073541;28;20048;-68
2021/01/22 07:56:35;;;;;;;23.87;6.00;;;7.20;99.90;;;7.50;76.88;98909.28;5091819;28;20428;-68
2021/01/22 07:59:03;;;;;;;21.03;6.93;;;7.30;99.90;;;7.43;76.48;98912.09;5091960;28;20044;-69
2021/01/22 08:01:31;;;;;;;17.53;6.40;;;7.30;99.90;;;7.51;76.12;98916.25;5091810;28;20039;-69
2021/01/22 08:03:59;;;;;;;28.57;7.10;;;7.30;99.90;;;7.43;76.25;98914.72;5092418;28;20347;-69
2021/01/22 08:06:26;;;;;;;20.13;7.03;;;7.30;99.90;;;7.58;76.12;98924.88;5095876;28;20040;-68
2021/01/22 08:09:09;;;;;;;21.30;6.57;;;7.40;99.90;;;7.66;76.00;98918.53;5095630;28;20056;-68
2021/01/22 08:11:37;;;;;;;20.60;6.57;;;7.50;99.90;;;7.72;76.06;98933.31;5077299;28;20052;-68
2021/01/22 08:14:05;;;;;;;20.87;7.00;;;7.50;99.90;;;7.72;75.88;98935.94;5095380;28;20059;-69
2021/01/22 08:16:34;;;;;;;23.13;6.93;;;7.50;99.90;;;7.77;75.37;98940.19;5077475;28;20048;-69
2021/01/22 08:19:02;;;;;;;18.27;6.10;;;7.60;99.90;;;7.76;74.96;98934.97;5095384;28;20044;-69
2021/01/22 08:21:31;;;;;;;16.87;5.93;;;7.60;99.90;;;7.71;75.53;98948.22;5095326;28;20063;-68
2021/01/22 08:24:00;;;;;;;21.97;7.70;;;7.60;99.90;;;7.79;75.67;98948.91;5095294;28;20051;-68
2021/01/22 08:26:28;;;;;;;28.10;7.87;;;7.60;99.90;;;7.85;75.14;98946.13;5077074;28;20050;-69
2021/01/22 08:28:57;;;;;;;21.00;6.90;;;7.70;99.90;;;7.84;74.87;98952.28;5077362;28;20051;-68
2021/01/22 08:31:24;;;;;;;20.47;6.50;;;7.70;99.90;;;7.75;75.33;98952.50;5095579;28;20055;-68
2021/01/22 08:33:52;;;;;;;20.70;6.30;;;7.60;99.90;;;7.83;75.34;98961.09;5077252;28;20059;-68
2021/01/22 08:36:21;;;;;;;24.60;6.93;;;7.60;99.90;;;7.72;75.63;98959.63;5095342;28;20115;-68
2021/01/22 08:38:55;;;;;;;18.30;6.50;;;7.60;99.90;;;7.92;75.31;98968.75;5095368;28;20044;-69
2021/01/22 08:41:25;;;;;;;19.17;6.77;;;7.70;99.90;;;8.05;74.55;98972.81;5077321;28;20051;-68
2021/01/22 08:43:54;;;;;;;21.85;6.80;;;7.80;99.90;;;8.08;74.83;98969.25;5077062;28;20056;-68
2021/01/22 08:46:23;;;;;;;16.57;7.20;;;7.90;99.90;;;7.97;74.54;98959.00;5095019;28;20044;-68
2021/01/22 08:48:51;;;;;;;21.00;6.38;;;7.90;99.90;;;8.25;74.36;98979.38;5094609;28;20052;-74
2021/01/22 08:51:28;;;;;;;21.03;6.00;;;8.00;99.90;;;8.43;73.54;98999.97;5076778;28;20044;-73
2021/01/22 08:53:58;;;;;;;21.90;6.43;;;8.20;99.90;;;8.54;73.24;98979.47;5094718;28;20047;-69
2021/01/22 08:56:25;;;;;;;20.85;7.32;;;8.40;99.90;;;8.56;72.39;98991.72;5094836;28;20037;-72
2021/01/22 08:59:04;;;;;;;14.52;5.88;;;8.40;99.90;;;8.57;72.33;98998.72;5094557;28;20047;-70
2021/01/22 09:01:59;;;;;;;19.23;6.63;;;8.40;99.90;;;8.63;72.25;99008.22;5094542;28;20508;-78
2021/01/22 09:04:33;;;;;;;18.75;6.05;;;8.40;99.90;;;8.63;71.62;99009.06;5047997;28;20154;-73
2021/01/22 09:07:03;;;;;;;19.85;6.65;;;8.40;99.90;;;8.69;72.10;99010.72;5094562;28;20481;-72
2021/01/22 09:09:43;;;;;;;18.42;6.03;;;8.50;99.90;;;8.65;71.50;98998.53;5094526;28;20051;-72
2021/01/22 09:12:25;;;;;;;18.60;6.15;;;8.50;99.90;;;8.76;71.27;99020.16;5094165;28;20118;-73
2021/01/22 09:14:59;;;;;;;26.98;6.00;;;8.60;99.90;;;8.70;71.27;99034.38;5094237;28;20051;-72
2021/01/22 09:17:36;;;;;;;18.00;5.80;;;8.60;99.90;;;8.87;71.58;99026.00;5093500;28;20451;-72
2021/01/22 09:20:09;;;;;;;14.38;5.32;;;8.70;99.90;;;8.95;71.04;99034.56;5075902;28;20122;-71
2021/01/22 09:22:38;;;;;;;20.90;5.82;;;8.70;99.90;;;9.04;70.74;99039.59;5076133;28;20055;-70
2021/01/22 09:25:08;;;;;;;25.15;5.90;;;8.80;99.90;;;9.33;70.30;99044.06;5094228;28;20044;-70
2021/01/22 09:27:37;;;;;;;16.92;6.10;;;9.00;99.90;;;9.47;70.47;99053.28;5094156;28;20047;-71
2021/01/22 09:30:07;;;;;;;11.52;5.25;;;9.20;99.90;;;9.62;69.71;99058.13;5075869;28;20055;-70
2021/01/22 09:32:35;;;;;;;15.52;6.22;;;9.40;99.90;;;9.92;68.33;99061.63;5093936;28;20055;-70
2021/01/22 09:35:04;;;;;;;16.20;5.78;;;9.70;99.90;;;10.27;67.65;99081.66;5075987;28;20082;-70
2021/01/22 09:37:32;;;;;;;15.90;5.68;;;10.00;99.90;;;10.41;66.25;99063.59;5093964;28;20394;-70
2021/01/22 09:40:00;;;;;;;16.40;5.13;;;10.20;99.90;;;10.44;65.95;99064.34;5093722;28;20075;-70
2021/01/22 09:42:28;;;;;;;18.20;6.70;;;10.30;99.90;;;10.52;65.97;99070.25;5093775;28;20055;-70
2021/01/22 09:44:56;;;;;;;17.17;5.63;;;10.30;99.90;;;10.52;65.52;99054.41;5093669;28;20052;-70
2021/01/22 09:47:23;;;;;;;15.50;5.60;;;10.50;99.90;;;10.81;64.73;99085.13;5093647;28;20055;-71
2021/01/22 09:49:52;;;;;;;15.85;5.95;;;10.60;99.90;;;10.86;64.91;99089.34;5093660;28;20119;-70
2021/01/22 09:52:20;;;;;;;19.23;5.90;;;10.60;99.90;;;10.97;64.31;99099.59;5075606;28;20048;-71
2021/01/22 09:54:47;;;;;;;17.52;6.18;;;10.80;99.90;;;10.71;64.49;99100.47;5075403;28;20052;-73
2021/01/22 09:57:15;;;;;;;15.20;6.18;;;10.60;99.90;;;10.63;64.82;99097.19;5093393;28;20047;-71
2021/01/22 09:59:42;;;;;;;18.05;6.40;;;10.50;99.90;;;10.63;65.01;99104.25;5093131;28;20075;-71
2021/01/22 10:02:10;;;;;;;19.05;5.63;;;10.40;99.90;;;10.72;65.10;99111.91;5093645;28;20409;-71
2021/01/22 10:04:38;;;;;;;22.67;7.30;;;10.50;99.90;;;10.82;64.59;99116.81;5075300;28;20127;-71
2021/01/22 10:07:06;;;;;;;14.65;5.60;;;10.60;99.90;;;10.75;64.01;99119.72;5093346;28;20060;-71
2021/01/22 10:09:34;;;;;;;12.68;5.50;;;10.60;99.90;;;10.96;64.52;99132.22;5093453;28;20056;-71
2021/01/22 10:12:06;;;;;;;17.48;5.72;;;10.70;99.90;;;11.36;64.59;99129.91;5093034;28;20443;-70
2021/01/22 10:14:34;;;;;;;16.67;6.00;;;11.00;99.90;;;11.61;63.65;99136.06;5093349;28;20074;-71
2021/01/22 10:17:02;;;;;;;18.77;5.80;;;11.40;99.90;;;11.74;63.52;99132.09;5093210;28;20475;-71
2021/01/22 10:19:34;;;;;;;24.42;6.20;;;11.50;99.90;;;12.02;63.44;99152.25;5092998;28;20089;-70
2021/01/22 10:22:02;;;;;;;21.05;6.55;;;11.70;99.90;;;12.21;63.40;99148.84;5093016;28;20580;-71
2021/01/22 10:24:31;;;;;;;19.10;6.43;;;11.90;99.90;;;12.15;63.16;99151.75;5092869;28;20860;-72
2021/01/22 10:26:58;;;;;;;17.88;6.85;;;12.00;99.90;;;12.21;63.70;99158.59;5092458;28;20036;-71
2021/01/22 10:29:26;;;;;;;18.90;6.20;;;11.90;99.90;;;12.31;63.34;99167.91;5092300;28;20052;-71
2021/01/22 10:31:53;;;;;;;19.40;6.47;;;12.10;99.90;;;12.62;63.03;99155.16;5092954;28;20127;-71
2021/01/22 10:34:21;;;;;;;15.27;6.47;;;12.30;99.90;;;12.83;62.42;99137.50;5092818;28;20455;-71
2021/01/22 10:36:49;;;;;;;15.68;5.65;;;12.60;99.90;;;13.20;60.30;99161.63;5092787;28;20048;-71
2021/01/22 10:39:16;;;;;;;14.38;5.22;;;12.90;99.90;;;12.97;58.54;99151.09;5092462;28;20056;-71
2021/01/22 10:41:45;;;;;;;17.63;6.03;;;12.80;99.90;;;12.86;59.14;99148.84;5092858;28;20044;-71